Terminal Aerodrome Forecast
Issued by NWS

Home | Current Version | Previous Version | Graphics & Text | Print | Product List | Glossary On
Versions: 1 2 3 4 5 6 7 8 9 10 11 12 13
000
FTUS43 KOAX 221100
TAFCDR
TAF
KCDR 221139Z 2212/2312 25007KT P6SM SCT100
     FM221900 12010KT P6SM VCTS SCT040CB BKN100
     FM230300 12006KT 6SM BR VCTS SCT020CB OVC035
     FM230700 VRB04KT 4SM BR BKN030=

USA.gov is the U.S. government's official web portal to all federal, state and local government web resources and services.